sensor_id;sensor_type;location;lat;lon;timestamp;P1;durP1;ratioP1;P2;durP2;ratioP2
20657;SDS011;10488;50.846;4.078;2023-04-09T00:01:01;114.15;;;57.55;;
20657;SDS011;10488;50.846;4.078;2023-04-09T00:03:27;113.32;;;61.13;;
20657;SDS011;10488;50.846;4.078;2023-04-09T00:05:53;122.03;;;62.42;;
20657;SDS011;10488;50.846;4.078;2023-04-09T00:08:20;113.30;;;59.47;;
20657;SDS011;10488;50.846;4.078;2023-04-09T00:10:47;123.97;;;63.88;;
20657;SDS011;10488;50.846;4.078;2023-04-09T00:13:13;113.40;;;57.72;;
20657;SDS011;10488;50.846;4.078;2023-04-09T00:15:39;114.22;;;58.08;;
20657;SDS011;10488;50.846;4.078;2023-04-09T00:18:05;120.65;;;60.35;;
20657;SDS011;10488;50.846;4.078;2023-04-09T00:20:30;102.75;;;54.78;;
20657;SDS011;10488;50.846;4.078;2023-04-09T00:22:56;107.57;;;55.90;;
20657;SDS011;10488;50.846;4.078;2023-04-09T00:25:22;103.63;;;54.65;;
20657;SDS011;10488;50.846;4.078;2023-04-09T00:27:48;108.57;;;53.45;;
20657;SDS011;10488;50.846;4.078;2023-04-09T00:30:13;106.78;;;55.50;;
20657;SDS011;10488;50.846;4.078;2023-04-09T00:32:39;115.13;;;56.13;;
20657;SDS011;10488;50.846;4.078;2023-04-09T00:35:05;109.50;;;57.47;;
20657;SDS011;10488;50.846;4.078;2023-04-09T00:37:31;104.80;;;55.25;;
20657;SDS011;10488;50.846;4.078;2023-04-09T00:39:57;105.97;;;53.83;;
20657;SDS011;10488;50.846;4.078;2023-04-09T00:42:23;103.30;;;53.85;;
20657;SDS011;10488;50.846;4.078;2023-04-09T00:44:49;106.47;;;55.50;;
20657;SDS011;10488;50.846;4.078;2023-04-09T00:47:14;106.13;;;55.28;;
20657;SDS011;10488;50.846;4.078;2023-04-09T00:49:40;103.90;;;52.83;;
20657;SDS011;10488;50.846;4.078;2023-04-09T00:52:06;93.07;;;51.13;;
20657;SDS011;10488;50.846;4.078;2023-04-09T00:54:32;97.97;;;51.67;;
20657;SDS011;10488;50.846;4.078;2023-04-09T00:56:58;103.75;;;54.47;;
20657;SDS011;10488;50.846;4.078;2023-04-09T00:59:24;100.78;;;51.92;;
20657;SDS011;10488;50.846;4.078;2023-04-09T01:01:50;99.65;;;54.03;;
20657;SDS011;10488;50.846;4.078;2023-04-09T01:04:16;96.40;;;52.45;;
20657;SDS011;10488;50.846;4.078;2023-04-09T01:09:36;96.47;;;52.30;;
20657;SDS011;10488;50.846;4.078;2023-04-09T01:17:21;102.80;;;54.58;;
20657;SDS011;10488;50.846;4.078;2023-04-09T01:20:06;106.82;;;55.35;;
20657;SDS011;10488;50.846;4.078;2023-04-09T01:28:18;113.25;;;58.92;;
20657;SDS011;10488;50.846;4.078;2023-04-09T01:30:56;108.55;;;54.50;;
20657;SDS011;10488;50.846;4.078;2023-04-09T01:33:26;94.55;;;50.42;;
20657;SDS011;10488;50.846;4.078;2023-04-09T01:35:54;98.30;;;51.88;;
20657;SDS011;10488;50.846;4.078;2023-04-09T01:38:21;87.68;;;47.28;;
20657;SDS011;10488;50.846;4.078;2023-04-09T01:40:48;91.97;;;47.03;;
20657;SDS011;10488;50.846;4.078;2023-04-09T01:43:14;77.40;;;46.03;;
20657;SDS011;10488;50.846;4.078;2023-04-09T01:45:42;88.18;;;48.00;;
20657;SDS011;10488;50.846;4.078;2023-04-09T01:48:09;79.25;;;45.28;;
20657;SDS011;10488;50.846;4.078;2023-04-09T01:50:37;77.65;;;45.00;;
20657;SDS011;10488;50.846;4.078;2023-04-09T01:53:02;72.07;;;42.05;;
20657;SDS011;10488;50.846;4.078;2023-04-09T01:55:28;68.50;;;40.13;;
20657;SDS011;10488;50.846;4.078;2023-04-09T01:57:54;70.60;;;42.05;;
20657;SDS011;10488;50.846;4.078;2023-04-09T02:00:19;71.45;;;42.97;;
20657;SDS011;10488;50.846;4.078;2023-04-09T02:02:48;77.35;;;45.97;;
20657;SDS011;10488;50.846;4.078;2023-04-09T02:05:17;82.35;;;47.40;;
20657;SDS011;10488;50.846;4.078;2023-04-09T02:07:48;80.45;;;45.50;;
20657;SDS011;10488;50.846;4.078;2023-04-09T02:10:19;87.05;;;48.10;;
20657;SDS011;10488;50.846;4.078;2023-04-09T02:12:48;92.18;;;48.17;;
20657;SDS011;10488;50.846;4.078;2023-04-09T02:15:16;89.03;;;46.92;;
20657;SDS011;10488;50.846;4.078;2023-04-09T02:17:44;88.28;;;47.33;;
20657;SDS011;10488;50.846;4.078;2023-04-09T02:20:10;90.20;;;47.13;;
20657;SDS011;10488;50.846;4.078;2023-04-09T02:22:36;94.57;;;47.60;;
20657;SDS011;10488;50.846;4.078;2023-04-09T02:25:03;86.30;;;45.35;;
20657;SDS011;10488;50.846;4.078;2023-04-09T02:27:29;88.55;;;46.40;;
20657;SDS011;10488;50.846;4.078;2023-04-09T02:29:54;87.18;;;46.00;;
20657;SDS011;10488;50.846;4.078;2023-04-09T02:32:20;87.88;;;45.92;;
20657;SDS011;10488;50.846;4.078;2023-04-09T02:34:46;86.43;;;45.67;;
20657;SDS011;10488;50.846;4.078;2023-04-09T02:37:11;84.80;;;43.35;;
20657;SDS011;10488;50.846;4.078;2023-04-09T02:39:37;79.38;;;42.35;;
20657;SDS011;10488;50.846;4.078;2023-04-09T02:42:02;79.68;;;43.58;;
20657;SDS011;10488;50.846;4.078;2023-04-09T02:44:28;74.15;;;40.95;;
20657;SDS011;10488;50.846;4.078;2023-04-09T02:46:55;68.32;;;38.75;;
20657;SDS011;10488;50.846;4.078;2023-04-09T02:49:20;72.43;;;41.63;;
20657;SDS011;10488;50.846;4.078;2023-04-09T02:51:46;70.75;;;39.47;;
20657;SDS011;10488;50.846;4.078;2023-04-09T02:54:12;68.45;;;39.30;;
20657;SDS011;10488;50.846;4.078;2023-04-09T02:56:37;72.28;;;40.53;;
20657;SDS011;10488;50.846;4.078;2023-04-09T02:59:03;73.20;;;39.45;;
20657;SDS011;10488;50.846;4.078;2023-04-09T03:01:28;68.47;;;38.60;;
20657;SDS011;10488;50.846;4.078;2023-04-09T03:03:54;73.63;;;40.47;;
20657;SDS011;10488;50.846;4.078;2023-04-09T03:06:20;74.53;;;40.58;;
20657;SDS011;10488;50.846;4.078;2023-04-09T03:08:45;83.72;;;44.00;;
20657;SDS011;10488;50.846;4.078;2023-04-09T03:11:11;84.45;;;44.80;;
20657;SDS011;10488;50.846;4.078;2023-04-09T03:13:38;76.57;;;42.25;;
20657;SDS011;10488;50.846;4.078;2023-04-09T03:16:03;75.50;;;39.38;;
20657;SDS011;10488;50.846;4.078;2023-04-09T03:18:29;76.50;;;40.58;;
20657;SDS011;10488;50.846;4.078;2023-04-09T03:20:55;73.78;;;40.25;;
20657;SDS011;10488;50.846;4.078;2023-04-09T03:23:21;77.25;;;40.92;;
20657;SDS011;10488;50.846;4.078;2023-04-09T03:25:46;72.57;;;39.92;;
20657;SDS011;10488;50.846;4.078;2023-04-09T03:28:12;77.00;;;39.45;;
20657;SDS011;10488;50.846;4.078;2023-04-09T03:30:37;75.55;;;39.90;;
20657;SDS011;10488;50.846;4.078;2023-04-09T03:33:03;75.00;;;39.15;;
20657;SDS011;10488;50.846;4.078;2023-04-09T03:35:29;71.68;;;39.10;;
20657;SDS011;10488;50.846;4.078;2023-04-09T03:37:54;83.70;;;41.63;;
20657;SDS011;10488;50.846;4.078;2023-04-09T03:40:20;65.45;;;36.85;;
20657;SDS011;10488;50.846;4.078;2023-04-09T03:42:45;70.35;;;37.25;;
20657;SDS011;10488;50.846;4.078;2023-04-09T03:45:11;62.38;;;35.63;;
20657;SDS011;10488;50.846;4.078;2023-04-09T03:47:37;70.15;;;36.17;;
20657;SDS011;10488;50.846;4.078;2023-04-09T03:50:02;62.30;;;34.47;;
20657;SDS011;10488;50.846;4.078;2023-04-09T03:52:28;64.97;;;34.50;;
20657;SDS011;10488;50.846;4.078;2023-04-09T03:54:54;63.40;;;35.17;;
20657;SDS011;10488;50.846;4.078;2023-04-09T03:57:19;72.70;;;36.58;;
20657;SDS011;10488;50.846;4.078;2023-04-09T03:59:45;72.00;;;37.72;;
20657;SDS011;10488;50.846;4.078;2023-04-09T04:02:12;61.50;;;35.92;;
20657;SDS011;10488;50.846;4.078;2023-04-09T04:04:37;73.43;;;38.15;;
20657;SDS011;10488;50.846;4.078;2023-04-09T04:07:03;64.55;;;36.17;;
20657;SDS011;10488;50.846;4.078;2023-04-09T04:09:28;67.00;;;37.60;;
20657;SDS011;10488;50.846;4.078;2023-04-09T04:11:54;68.80;;;37.88;;
20657;SDS011;10488;50.846;4.078;2023-04-09T04:14:22;75.05;;;40.78;;
20657;SDS011;10488;50.846;4.078;2023-04-09T04:16:48;76.07;;;37.88;;
20657;SDS011;10488;50.846;4.078;2023-04-09T04:19:14;77.07;;;40.60;;
20657;SDS011;10488;50.846;4.078;2023-04-09T04:21:40;71.00;;;41.17;;
20657;SDS011;10488;50.846;4.078;2023-04-09T04:24:05;81.45;;;42.80;;
20657;SDS011;10488;50.846;4.078;2023-04-09T04:26:31;80.68;;;43.90;;
20657;SDS011;10488;50.846;4.078;2023-04-09T04:28:57;81.93;;;43.17;;
20657;SDS011;10488;50.846;4.078;2023-04-09T04:31:22;83.47;;;43.17;;
20657;SDS011;10488;50.846;4.078;2023-04-09T04:33:48;83.50;;;42.92;;
20657;SDS011;10488;50.846;4.078;2023-04-09T04:36:13;70.53;;;39.42;;
20657;SDS011;10488;50.846;4.078;2023-04-09T04:38:39;73.85;;;38.85;;
20657;SDS011;10488;50.846;4.078;2023-04-09T04:41:05;74.43;;;39.28;;
20657;SDS011;10488;50.846;4.078;2023-04-09T04:43:31;71.78;;;38.58;;
20657;SDS011;10488;50.846;4.078;2023-04-09T04:45:57;78.93;;;39.50;;
20657;SDS011;10488;50.846;4.078;2023-04-09T04:48:23;80.07;;;39.22;;
20657;SDS011;10488;50.846;4.078;2023-04-09T04:50:56;75.47;;;39.75;;
20657;SDS011;10488;50.846;4.078;2023-04-09T04:53:22;75.78;;;41.15;;
20657;SDS011;10488;50.846;4.078;2023-04-09T04:55:48;76.93;;;38.50;;
20657;SDS011;10488;50.846;4.078;2023-04-09T04:58:14;74.75;;;39.10;;
20657;SDS011;10488;50.846;4.078;2023-04-09T05:00:41;77.40;;;39.55;;
20657;SDS011;10488;50.846;4.078;2023-04-09T05:03:07;74.82;;;41.10;;
20657;SDS011;10488;50.846;4.078;2023-04-09T05:05:32;77.18;;;40.00;;
20657;SDS011;10488;50.846;4.078;2023-04-09T05:07:58;74.47;;;39.55;;
20657;SDS011;10488;50.846;4.078;2023-04-09T05:10:23;76.43;;;40.27;;
20657;SDS011;10488;50.846;4.078;2023-04-09T05:12:49;71.68;;;38.33;;
20657;SDS011;10488;50.846;4.078;2023-04-09T05:15:15;66.18;;;37.45;;
20657;SDS011;10488;50.846;4.078;2023-04-09T05:17:41;77.10;;;39.42;;
20657;SDS011;10488;50.846;4.078;2023-04-09T05:20:07;67.53;;;36.10;;
20657;SDS011;10488;50.846;4.078;2023-04-09T05:22:33;71.07;;;36.72;;
20657;SDS011;10488;50.846;4.078;2023-04-09T05:25:00;70.43;;;36.97;;
20657;SDS011;10488;50.846;4.078;2023-04-09T05:27:26;62.78;;;35.67;;
20657;SDS011;10488;50.846;4.078;2023-04-09T05:29:52;70.53;;;38.08;;
20657;SDS011;10488;50.846;4.078;2023-04-09T05:32:18;75.90;;;39.28;;
20657;SDS011;10488;50.846;4.078;2023-04-09T05:34:44;67.68;;;37.53;;
20657;SDS011;10488;50.846;4.078;2023-04-09T05:37:09;66.65;;;35.80;;
20657;SDS011;10488;50.846;4.078;2023-04-09T05:39:35;65.78;;;34.75;;
20657;SDS011;10488;50.846;4.078;2023-04-09T05:42:01;67.03;;;35.53;;
20657;SDS011;10488;50.846;4.078;2023-04-09T05:44:26;64.28;;;34.58;;
20657;SDS011;10488;50.846;4.078;2023-04-09T05:46:52;62.83;;;34.80;;
20657;SDS011;10488;50.846;4.078;2023-04-09T05:49:18;62.35;;;35.78;;
20657;SDS011;10488;50.846;4.078;2023-04-09T05:51:46;67.38;;;37.08;;
20657;SDS011;10488;50.846;4.078;2023-04-09T05:54:14;56.40;;;34.35;;
20657;SDS011;10488;50.846;4.078;2023-04-09T05:56:41;53.70;;;33.22;;
20657;SDS011;10488;50.846;4.078;2023-04-09T05:59:07;49.63;;;29.75;;
20657;SDS011;10488;50.846;4.078;2023-04-09T06:01:33;48.88;;;28.83;;
20657;SDS011;10488;50.846;4.078;2023-04-09T06:03:59;45.60;;;27.63;;
20657;SDS011;10488;50.846;4.078;2023-04-09T06:06:24;42.83;;;28.30;;
20657;SDS011;10488;50.846;4.078;2023-04-09T06:08:51;43.60;;;27.50;;
20657;SDS011;10488;50.846;4.078;2023-04-09T06:11:16;40.58;;;26.52;;
20657;SDS011;10488;50.846;4.078;2023-04-09T06:13:42;39.38;;;27.25;;
20657;SDS011;10488;50.846;4.078;2023-04-09T06:16:08;37.28;;;25.00;;
20657;SDS011;10488;50.846;4.078;2023-04-09T06:18:35;43.05;;;26.95;;
20657;SDS011;10488;50.846;4.078;2023-04-09T06:21:04;48.42;;;28.77;;
20657;SDS011;10488;50.846;4.078;2023-04-09T06:23:31;45.17;;;29.63;;
20657;SDS011;10488;50.846;4.078;2023-04-09T06:25:58;43.55;;;29.70;;
20657;SDS011;10488;50.846;4.078;2023-04-09T06:28:25;40.72;;;27.58;;
20657;SDS011;10488;50.846;4.078;2023-04-09T06:30:52;44.90;;;29.55;;
20657;SDS011;10488;50.846;4.078;2023-04-09T06:33:19;39.45;;;27.42;;
20657;SDS011;10488;50.846;4.078;2023-04-09T06:35:45;36.50;;;26.05;;
20657;SDS011;10488;50.846;4.078;2023-04-09T06:38:11;37.63;;;26.10;;
20657;SDS011;10488;50.846;4.078;2023-04-09T06:40:37;36.78;;;25.73;;
20657;SDS011;10488;50.846;4.078;2023-04-09T06:43:03;36.50;;;26.25;;
20657;SDS011;10488;50.846;4.078;2023-04-09T06:45:30;40.30;;;28.15;;
20657;SDS011;10488;50.846;4.078;2023-04-09T06:47:56;39.38;;;27.45;;
20657;SDS011;10488;50.846;4.078;2023-04-09T06:50:22;40.67;;;27.33;;
20657;SDS011;10488;50.846;4.078;2023-04-09T06:52:48;42.25;;;28.58;;
20657;SDS011;10488;50.846;4.078;2023-04-09T06:55:17;38.55;;;28.33;;
20657;SDS011;10488;50.846;4.078;2023-04-09T06:57:43;47.55;;;29.92;;
20657;SDS011;10488;50.846;4.078;2023-04-09T07:00:09;41.13;;;29.00;;
20657;SDS011;10488;50.846;4.078;2023-04-09T07:02:35;41.17;;;28.85;;
20657;SDS011;10488;50.846;4.078;2023-04-09T07:05:01;43.92;;;30.73;;
20657;SDS011;10488;50.846;4.078;2023-04-09T07:07:28;44.83;;;31.15;;
20657;SDS011;10488;50.846;4.078;2023-04-09T07:09:54;47.22;;;32.58;;
20657;SDS011;10488;50.846;4.078;2023-04-09T07:12:32;46.97;;;33.33;;
20657;SDS011;10488;50.846;4.078;2023-04-09T07:15:01;46.75;;;33.05;;
20657;SDS011;10488;50.846;4.078;2023-04-09T07:17:32;51.22;;;34.35;;
20657;SDS011;10488;50.846;4.078;2023-04-09T07:19:59;48.00;;;31.40;;
20657;SDS011;10488;50.846;4.078;2023-04-09T07:22:25;48.85;;;32.60;;
20657;SDS011;10488;50.846;4.078;2023-04-09T07:24:52;53.83;;;35.63;;
20657;SDS011;10488;50.846;4.078;2023-04-09T07:27:19;52.65;;;33.10;;
20657;SDS011;10488;50.846;4.078;2023-04-09T07:29:48;47.33;;;32.97;;
20657;SDS011;10488;50.846;4.078;2023-04-09T07:32:14;48.17;;;33.05;;
20657;SDS011;10488;50.846;4.078;2023-04-09T07:34:41;48.88;;;33.08;;
20657;SDS011;10488;50.846;4.078;2023-04-09T07:37:07;54.45;;;34.75;;
20657;SDS011;10488;50.846;4.078;2023-04-09T07:39:33;50.10;;;34.72;;
20657;SDS011;10488;50.846;4.078;2023-04-09T07:42:01;45.17;;;32.50;;
20657;SDS011;10488;50.846;4.078;2023-04-09T07:44:28;45.67;;;32.97;;
20657;SDS011;10488;50.846;4.078;2023-04-09T07:46:54;48.88;;;32.60;;
20657;SDS011;10488;50.846;4.078;2023-04-09T07:49:20;45.25;;;31.42;;
20657;SDS011;10488;50.846;4.078;2023-04-09T07:51:46;42.28;;;32.20;;
20657;SDS011;10488;50.846;4.078;2023-04-09T07:54:11;47.60;;;32.28;;
20657;SDS011;10488;50.846;4.078;2023-04-09T07:56:37;43.17;;;30.65;;
20657;SDS011;10488;50.846;4.078;2023-04-09T07:59:03;42.00;;;29.08;;
20657;SDS011;10488;50.846;4.078;2023-04-09T08:01:28;42.17;;;29.27;;
20657;SDS011;10488;50.846;4.078;2023-04-09T08:03:54;41.35;;;29.05;;
20657;SDS011;10488;50.846;4.078;2023-04-09T08:06:20;42.60;;;29.25;;
20657;SDS011;10488;50.846;4.078;2023-04-09T08:08:45;41.35;;;26.80;;
20657;SDS011;10488;50.846;4.078;2023-04-09T08:11:11;41.13;;;28.13;;
20657;SDS011;10488;50.846;4.078;2023-04-09T08:13:36;42.70;;;28.92;;
20657;SDS011;10488;50.846;4.078;2023-04-09T08:16:02;46.05;;;29.45;;
20657;SDS011;10488;50.846;4.078;2023-04-09T08:18:28;38.88;;;26.75;;
20657;SDS011;10488;50.846;4.078;2023-04-09T08:20:54;36.53;;;26.92;;
20657;SDS011;10488;50.846;4.078;2023-04-09T08:23:21;38.42;;;27.13;;
20657;SDS011;10488;50.846;4.078;2023-04-09T08:25:46;42.60;;;27.65;;
20657;SDS011;10488;50.846;4.078;2023-04-09T08:28:12;38.70;;;27.30;;
20657;SDS011;10488;50.846;4.078;2023-04-09T08:30:37;40.35;;;27.40;;
20657;SDS011;10488;50.846;4.078;2023-04-09T08:33:03;38.13;;;25.55;;
20657;SDS011;10488;50.846;4.078;2023-04-09T08:35:29;38.92;;;26.80;;
20657;SDS011;10488;50.846;4.078;2023-04-09T08:37:55;41.17;;;28.90;;
20657;SDS011;10488;50.846;4.078;2023-04-09T08:40:21;39.70;;;28.02;;
20657;SDS011;10488;50.846;4.078;2023-04-09T08:42:49;37.58;;;25.88;;
20657;SDS011;10488;50.846;4.078;2023-04-09T08:45:20;41.50;;;28.65;;
20657;SDS011;10488;50.846;4.078;2023-04-09T08:47:46;42.70;;;29.55;;
20657;SDS011;10488;50.846;4.078;2023-04-09T08:50:14;42.45;;;29.75;;
20657;SDS011;10488;50.846;4.078;2023-04-09T08:52:40;41.70;;;28.08;;
20657;SDS011;10488;50.846;4.078;2023-04-09T08:55:06;39.78;;;29.13;;
20657;SDS011;10488;50.846;4.078;2023-04-09T08:57:38;40.42;;;29.45;;
20657;SDS011;10488;50.846;4.078;2023-04-09T09:00:05;41.30;;;27.67;;
20657;SDS011;10488;50.846;4.078;2023-04-09T09:02:31;39.75;;;27.80;;
20657;SDS011;10488;50.846;4.078;2023-04-09T09:04:57;43.90;;;27.83;;
20657;SDS011;10488;50.846;4.078;2023-04-09T09:07:25;41.67;;;27.15;;
20657;SDS011;10488;50.846;4.078;2023-04-09T09:09:59;40.17;;;26.20;;
20657;SDS011;10488;50.846;4.078;2023-04-09T09:12:32;36.80;;;26.63;;
20657;SDS011;10488;50.846;4.078;2023-04-09T09:15:00;33.17;;;23.45;;
20657;SDS011;10488;50.846;4.078;2023-04-09T09:17:26;36.10;;;26.40;;
20657;SDS011;10488;50.846;4.078;2023-04-09T09:19:52;37.00;;;26.13;;
20657;SDS011;10488;50.846;4.078;2023-04-09T09:22:17;36.92;;;27.35;;
20657;SDS011;10488;50.846;4.078;2023-04-09T09:24:50;39.38;;;26.65;;
20657;SDS011;10488;50.846;4.078;2023-04-09T09:27:35;33.22;;;24.55;;
20657;SDS011;10488;50.846;4.078;2023-04-09T09:30:04;38.47;;;26.83;;
20657;SDS011;10488;50.846;4.078;2023-04-09T09:32:34;36.33;;;26.17;;
20657;SDS011;10488;50.846;4.078;2023-04-09T09:35:04;44.95;;;27.67;;
20657;SDS011;10488;50.846;4.078;2023-04-09T09:37:31;42.15;;;29.50;;
20657;SDS011;10488;50.846;4.078;2023-04-09T09:39:58;39.13;;;26.75;;
20657;SDS011;10488;50.846;4.078;2023-04-09T09:42:25;41.85;;;28.00;;
20657;SDS011;10488;50.846;4.078;2023-04-09T09:44:51;41.28;;;28.98;;
20657;SDS011;10488;50.846;4.078;2023-04-09T09:47:18;40.47;;;26.77;;
20657;SDS011;10488;50.846;4.078;2023-04-09T09:49:46;41.30;;;26.52;;
20657;SDS011;10488;50.846;4.078;2023-04-09T09:52:14;40.33;;;27.88;;
20657;SDS011;10488;50.846;4.078;2023-04-09T09:54:41;43.35;;;28.10;;
20657;SDS011;10488;50.846;4.078;2023-04-09T09:57:11;39.30;;;27.88;;
20657;SDS011;10488;50.846;4.078;2023-04-09T10:00:12;41.47;;;26.50;;
20657;SDS011;10488;50.846;4.078;2023-04-09T10:02:34;37.50;;;26.25;;
20657;SDS011;10488;50.846;4.078;2023-04-09T10:05:05;38.22;;;25.50;;
20657;SDS011;10488;50.846;4.078;2023-04-09T10:07:33;37.35;;;26.85;;
20657;SDS011;10488;50.846;4.078;2023-04-09T10:10:00;39.42;;;26.52;;
20657;SDS011;10488;50.846;4.078;2023-04-09T10:12:27;37.40;;;25.15;;
20657;SDS011;10488;50.846;4.078;2023-04-09T10:14:53;36.25;;;24.70;;
20657;SDS011;10488;50.846;4.078;2023-04-09T10:17:20;34.67;;;24.70;;
20657;SDS011;10488;50.846;4.078;2023-04-09T10:19:48;38.22;;;26.42;;
20657;SDS011;10488;50.846;4.078;2023-04-09T10:22:42;35.45;;;25.00;;
20657;SDS011;10488;50.846;4.078;2023-04-09T10:25:12;39.13;;;24.52;;
20657;SDS011;10488;50.846;4.078;2023-04-09T10:27:38;38.03;;;25.27;;
20657;SDS011;10488;50.846;4.078;2023-04-09T10:30:04;33.78;;;24.05;;
20657;SDS011;10488;50.846;4.078;2023-04-09T10:32:34;34.80;;;24.58;;
20657;SDS011;10488;50.846;4.078;2023-04-09T10:35:01;35.35;;;24.63;;
20657;SDS011;10488;50.846;4.078;2023-04-09T10:37:28;37.75;;;24.50;;
20657;SDS011;10488;50.846;4.078;2023-04-09T10:39:54;36.53;;;24.33;;
20657;SDS011;10488;50.846;4.078;2023-04-09T10:42:38;34.28;;;24.02;;
20657;SDS011;10488;50.846;4.078;2023-04-09T10:45:07;36.58;;;25.95;;
20657;SDS011;10488;50.846;4.078;2023-04-09T10:47:34;34.83;;;23.90;;
20657;SDS011;10488;50.846;4.078;2023-04-09T10:50:15;38.22;;;24.15;;
20657;SDS011;10488;50.846;4.078;2023-04-09T10:52:52;36.80;;;23.50;;
20657;SDS011;10488;50.846;4.078;2023-04-09T10:55:39;31.42;;;24.00;;
20657;SDS011;10488;50.846;4.078;2023-04-09T10:58:09;34.70;;;22.45;;
20657;SDS011;10488;50.846;4.078;2023-04-09T11:00:36;34.95;;;23.08;;
20657;SDS011;10488;50.846;4.078;2023-04-09T11:05:46;30.02;;;20.60;;
20657;SDS011;10488;50.846;4.078;2023-04-09T11:08:14;30.63;;;21.80;;
20657;SDS011;10488;50.846;4.078;2023-04-09T11:10:41;29.05;;;21.65;;
20657;SDS011;10488;50.846;4.078;2023-04-09T11:13:15;31.55;;;22.95;;
20657;SDS011;10488;50.846;4.078;2023-04-09T11:15:43;29.33;;;20.95;;
20657;SDS011;10488;50.846;4.078;2023-04-09T11:18:28;29.77;;;21.10;;
20657;SDS011;10488;50.846;4.078;2023-04-09T11:21:00;32.50;;;22.27;;
20657;SDS011;10488;50.846;4.078;2023-04-09T11:23:28;31.13;;;21.35;;
20657;SDS011;10488;50.846;4.078;2023-04-09T11:25:55;26.33;;;19.33;;
20657;SDS011;10488;50.846;4.078;2023-04-09T11:28:21;26.65;;;19.15;;
20657;SDS011;10488;50.846;4.078;2023-04-09T11:30:49;26.73;;;19.40;;
20657;SDS011;10488;50.846;4.078;2023-04-09T11:33:15;25.58;;;18.67;;
20657;SDS011;10488;50.846;4.078;2023-04-09T11:35:41;28.42;;;19.30;;
20657;SDS011;10488;50.846;4.078;2023-04-09T11:38:07;26.65;;;19.02;;
20657;SDS011;10488;50.846;4.078;2023-04-09T11:40:34;26.92;;;19.48;;
20657;SDS011;10488;50.846;4.078;2023-04-09T11:43:01;26.15;;;19.15;;
20657;SDS011;10488;50.846;4.078;2023-04-09T11:45:27;28.33;;;18.80;;
20657;SDS011;10488;50.846;4.078;2023-04-09T11:47:55;27.42;;;19.05;;
20657;SDS011;10488;50.846;4.078;2023-04-09T11:50:21;20.90;;;16.60;;
20657;SDS011;10488;50.846;4.078;2023-04-09T11:52:47;21.45;;;16.38;;
20657;SDS011;10488;50.846;4.078;2023-04-09T11:55:26;21.40;;;15.65;;
20657;SDS011;10488;50.846;4.078;2023-04-09T11:57:56;17.73;;;12.05;;
20657;SDS011;10488;50.846;4.078;2023-04-09T12:00:24;14.38;;;10.88;;
20657;SDS011;10488;50.846;4.078;2023-04-09T12:02:57;18.17;;;13.68;;
20657;SDS011;10488;50.846;4.078;2023-04-09T12:05:29;23.02;;;15.52;;
20657;SDS011;10488;50.846;4.078;2023-04-09T12:07:59;24.45;;;16.83;;
20657;SDS011;10488;50.846;4.078;2023-04-09T12:10:34;22.23;;;16.45;;
20657;SDS011;10488;50.846;4.078;2023-04-09T12:13:01;25.13;;;17.23;;
20657;SDS011;10488;50.846;4.078;2023-04-09T12:15:30;27.60;;;17.30;;
20657;SDS011;10488;50.846;4.078;2023-04-09T12:17:58;24.48;;;17.73;;
20657;SDS011;10488;50.846;4.078;2023-04-09T12:23:11;24.10;;;17.27;;
20657;SDS011;10488;50.846;4.078;2023-04-09T12:25:39;28.58;;;17.83;;
20657;SDS011;10488;50.846;4.078;2023-04-09T12:28:06;26.80;;;18.95;;
20657;SDS011;10488;50.846;4.078;2023-04-09T12:30:33;28.10;;;18.35;;
20657;SDS011;10488;50.846;4.078;2023-04-09T12:33:00;24.52;;;18.13;;
20657;SDS011;10488;50.846;4.078;2023-04-09T12:35:27;23.52;;;17.42;;
20657;SDS011;10488;50.846;4.078;2023-04-09T12:37:53;30.30;;;20.48;;
20657;SDS011;10488;50.846;4.078;2023-04-09T12:40:19;23.70;;;16.65;;
20657;SDS011;10488;50.846;4.078;2023-04-09T12:42:45;24.15;;;15.30;;
20657;SDS011;10488;50.846;4.078;2023-04-09T12:45:12;22.55;;;15.57;;
20657;SDS011;10488;50.846;4.078;2023-04-09T12:47:39;25.95;;;17.63;;
20657;SDS011;10488;50.846;4.078;2023-04-09T12:50:06;25.05;;;17.30;;
20657;SDS011;10488;50.846;4.078;2023-04-09T12:52:33;22.27;;;14.93;;
20657;SDS011;10488;50.846;4.078;2023-04-09T12:54:59;22.67;;;15.10;;
20657;SDS011;10488;50.846;4.078;2023-04-09T12:57:25;25.17;;;13.80;;
20657;SDS011;10488;50.846;4.078;2023-04-09T12:59:51;19.55;;;13.20;;
20657;SDS011;10488;50.846;4.078;2023-04-09T13:02:16;21.75;;;14.32;;
20657;SDS011;10488;50.846;4.078;2023-04-09T13:04:43;21.33;;;14.50;;
20657;SDS011;10488;50.846;4.078;2023-04-09T13:07:09;22.52;;;14.10;;
20657;SDS011;10488;50.846;4.078;2023-04-09T13:09:36;19.10;;;13.80;;
20657;SDS011;10488;50.846;4.078;2023-04-09T13:12:01;20.00;;;13.23;;
20657;SDS011;10488;50.846;4.078;2023-04-09T13:14:27;20.50;;;14.07;;
20657;SDS011;10488;50.846;4.078;2023-04-09T13:16:53;17.75;;;13.27;;
20657;SDS011;10488;50.846;4.078;2023-04-09T13:19:18;16.52;;;11.77;;
20657;SDS011;10488;50.846;4.078;2023-04-09T13:21:44;18.45;;;12.93;;
20657;SDS011;10488;50.846;4.078;2023-04-09T13:24:10;20.27;;;12.15;;
20657;SDS011;10488;50.846;4.078;2023-04-09T13:26:36;21.20;;;13.63;;
20657;SDS011;10488;50.846;4.078;2023-04-09T13:29:01;21.25;;;13.68;;
20657;SDS011;10488;50.846;4.078;2023-04-09T13:31:28;21.08;;;13.43;;
20657;SDS011;10488;50.846;4.078;2023-04-09T13:33:54;20.67;;;14.13;;
20657;SDS011;10488;50.846;4.078;2023-04-09T13:36:19;20.65;;;13.85;;
20657;SDS011;10488;50.846;4.078;2023-04-09T13:38:45;21.48;;;13.95;;
20657;SDS011;10488;50.846;4.078;2023-04-09T13:41:11;20.20;;;12.82;;
20657;SDS011;10488;50.846;4.078;2023-04-09T13:43:37;17.33;;;11.07;;
20657;SDS011;10488;50.846;4.078;2023-04-09T13:46:03;16.60;;;10.90;;
20657;SDS011;10488;50.846;4.078;2023-04-09T13:48:29;20.27;;;10.65;;
20657;SDS011;10488;50.846;4.078;2023-04-09T13:50:54;15.30;;;10.80;;
20657;SDS011;10488;50.846;4.078;2023-04-09T13:53:21;16.55;;;11.85;;
20657;SDS011;10488;50.846;4.078;2023-04-09T13:55:49;16.73;;;12.27;;
20657;SDS011;10488;50.846;4.078;2023-04-09T13:58:15;18.65;;;12.40;;
20657;SDS011;10488;50.846;4.078;2023-04-09T14:00:40;18.85;;;11.85;;
20657;SDS011;10488;50.846;4.078;2023-04-09T14:03:07;19.20;;;12.95;;
20657;SDS011;10488;50.846;4.078;2023-04-09T14:05:33;18.17;;;11.80;;
20657;SDS011;10488;50.846;4.078;2023-04-09T14:07:59;20.10;;;13.05;;
20657;SDS011;10488;50.846;4.078;2023-04-09T14:10:24;19.63;;;12.52;;
20657;SDS011;10488;50.846;4.078;2023-04-09T14:12:51;23.45;;;12.65;;
20657;SDS011;10488;50.846;4.078;2023-04-09T14:15:17;20.48;;;12.52;;
20657;SDS011;10488;50.846;4.078;2023-04-09T14:17:42;19.67;;;11.80;;
20657;SDS011;10488;50.846;4.078;2023-04-09T14:20:08;15.43;;;10.77;;
20657;SDS011;10488;50.846;4.078;2023-04-09T14:22:34;18.13;;;12.00;;
20657;SDS011;10488;50.846;4.078;2023-04-09T14:24:59;20.25;;;11.13;;
20657;SDS011;10488;50.846;4.078;2023-04-09T14:27:25;18.48;;;11.80;;
20657;SDS011;10488;50.846;4.078;2023-04-09T14:29:51;17.10;;;11.15;;
20657;SDS011;10488;50.846;4.078;2023-04-09T14:32:17;17.58;;;10.77;;
20657;SDS011;10488;50.846;4.078;2023-04-09T14:34:43;17.17;;;9.95;;
20657;SDS011;10488;50.846;4.078;2023-04-09T14:37:09;16.05;;;10.85;;
20657;SDS011;10488;50.846;4.078;2023-04-09T14:39:34;17.45;;;11.18;;